sensor_id;sensor_type;location;lat;lon;timestamp;P1;durP1;ratioP1;P2;durP2;ratioP2
70322;SDS011;57735;56.264;43.898;2023-12-22T00:00:59;14.77;;;6.47;;
70322;SDS011;57735;56.264;43.898;2023-12-22T00:03:30;14.93;;;6.88;;
70322;SDS011;57735;56.264;43.898;2023-12-22T00:06:01;13.55;;;7.22;;
70322;SDS011;57735;56.264;43.898;2023-12-22T00:08:32;15.98;;;6.80;;
70322;SDS011;57735;56.264;43.898;2023-12-22T00:11:03;12.38;;;6.15;;
70322;SDS011;57735;56.264;43.898;2023-12-22T00:13:34;14.13;;;5.63;;
70322;SDS011;57735;56.264;43.898;2023-12-22T00:16:05;14.48;;;6.93;;
70322;SDS011;57735;56.264;43.898;2023-12-22T00:18:36;12.50;;;5.70;;
70322;SDS011;57735;56.264;43.898;2023-12-22T00:21:10;12.38;;;6.13;;
70322;SDS011;57735;56.264;43.898;2023-12-22T00:23:41;13.38;;;6.00;;
70322;SDS011;57735;56.264;43.898;2023-12-22T00:26:12;13.63;;;5.63;;
70322;SDS011;57735;56.264;43.898;2023-12-22T00:28:45;15.88;;;6.25;;
70322;SDS011;57735;56.264;43.898;2023-12-22T00:31:16;18.73;;;7.43;;
70322;SDS011;57735;56.264;43.898;2023-12-22T00:33:47;13.50;;;6.43;;
70322;SDS011;57735;56.264;43.898;2023-12-22T00:36:17;14.88;;;6.78;;
70322;SDS011;57735;56.264;43.898;2023-12-22T00:38:50;20.15;;;6.80;;
70322;SDS011;57735;56.264;43.898;2023-12-22T00:41:21;14.75;;;6.75;;
70322;SDS011;57735;56.264;43.898;2023-12-22T00:43:52;16.30;;;7.68;;
70322;SDS011;57735;56.264;43.898;2023-12-22T00:46:23;17.50;;;6.70;;
70322;SDS011;57735;56.264;43.898;2023-12-22T00:48:53;19.00;;;7.50;;
70322;SDS011;57735;56.264;43.898;2023-12-22T00:51:24;20.35;;;8.05;;
70322;SDS011;57735;56.264;43.898;2023-12-22T00:53:55;18.83;;;7.80;;
70322;SDS011;57735;56.264;43.898;2023-12-22T00:56:33;20.75;;;8.77;;
70322;SDS011;57735;56.264;43.898;2023-12-22T00:59:04;23.27;;;9.35;;
70322;SDS011;57735;56.264;43.898;2023-12-22T01:01:35;22.75;;;9.30;;
70322;SDS011;57735;56.264;43.898;2023-12-22T01:04:06;20.20;;;7.72;;
70322;SDS011;57735;56.264;43.898;2023-12-22T01:06:37;20.67;;;8.10;;
70322;SDS011;57735;56.264;43.898;2023-12-22T01:09:09;13.93;;;6.63;;
70322;SDS011;57735;56.264;43.898;2023-12-22T01:11:40;16.50;;;7.18;;
70322;SDS011;57735;56.264;43.898;2023-12-22T01:14:11;14.27;;;6.45;;
70322;SDS011;57735;56.264;43.898;2023-12-22T01:16:43;15.35;;;7.00;;
70322;SDS011;57735;56.264;43.898;2023-12-22T01:19:14;21.17;;;7.35;;
70322;SDS011;57735;56.264;43.898;2023-12-22T01:21:47;12.88;;;6.30;;
70322;SDS011;57735;56.264;43.898;2023-12-22T01:24:18;14.13;;;6.90;;
70322;SDS011;57735;56.264;43.898;2023-12-22T01:26:49;19.90;;;7.30;;
70322;SDS011;57735;56.264;43.898;2023-12-22T01:29:19;17.98;;;6.45;;
70322;SDS011;57735;56.264;43.898;2023-12-22T01:31:50;21.23;;;8.07;;
70322;SDS011;57735;56.264;43.898;2023-12-22T01:34:21;19.67;;;7.78;;
70322;SDS011;57735;56.264;43.898;2023-12-22T01:36:52;17.33;;;6.85;;
70322;SDS011;57735;56.264;43.898;2023-12-22T01:39:23;16.92;;;7.00;;
70322;SDS011;57735;56.264;43.898;2023-12-22T01:41:53;14.15;;;6.50;;
70322;SDS011;57735;56.264;43.898;2023-12-22T01:44:24;14.43;;;6.45;;
70322;SDS011;57735;56.264;43.898;2023-12-22T01:46:55;14.77;;;6.65;;
70322;SDS011;57735;56.264;43.898;2023-12-22T01:49:26;19.38;;;7.70;;
70322;SDS011;57735;56.264;43.898;2023-12-22T01:51:58;15.90;;;6.63;;
70322;SDS011;57735;56.264;43.898;2023-12-22T01:54:29;13.32;;;5.95;;
70322;SDS011;57735;56.264;43.898;2023-12-22T01:57:00;16.23;;;6.97;;
70322;SDS011;57735;56.264;43.898;2023-12-22T01:59:35;19.20;;;7.90;;
70322;SDS011;57735;56.264;43.898;2023-12-22T02:02:06;16.67;;;7.20;;
70322;SDS011;57735;56.264;43.898;2023-12-22T02:04:37;17.85;;;7.50;;
70322;SDS011;57735;56.264;43.898;2023-12-22T02:07:08;18.35;;;7.32;;
70322;SDS011;57735;56.264;43.898;2023-12-22T02:09:40;16.88;;;6.85;;
70322;SDS011;57735;56.264;43.898;2023-12-22T02:12:12;19.88;;;8.13;;
70322;SDS011;57735;56.264;43.898;2023-12-22T02:14:42;23.02;;;8.52;;
70322;SDS011;57735;56.264;43.898;2023-12-22T02:20:57;16.45;;;8.18;;
70322;SDS011;57735;56.264;43.898;2023-12-22T02:23:28;20.55;;;8.85;;
70322;SDS011;57735;56.264;43.898;2023-12-22T02:26:43;17.50;;;8.63;;
70322;SDS011;57735;56.264;43.898;2023-12-22T02:28:59;20.15;;;9.02;;
70322;SDS011;57735;56.264;43.898;2023-12-22T02:31:35;23.33;;;9.45;;
70322;SDS011;57735;56.264;43.898;2023-12-22T02:34:18;24.42;;;8.48;;
70322;SDS011;57735;56.264;43.898;2023-12-22T02:36:50;20.13;;;8.75;;
70322;SDS011;57735;56.264;43.898;2023-12-22T02:39:23;20.65;;;8.18;;
70322;SDS011;57735;56.264;43.898;2023-12-22T02:41:54;19.88;;;8.77;;
70322;SDS011;57735;56.264;43.898;2023-12-22T02:44:25;21.05;;;10.18;;
70322;SDS011;57735;56.264;43.898;2023-12-22T02:46:57;18.10;;;7.47;;
70322;SDS011;57735;56.264;43.898;2023-12-22T02:49:28;20.77;;;7.75;;
70322;SDS011;57735;56.264;43.898;2023-12-22T02:51:59;18.40;;;7.45;;
70322;SDS011;57735;56.264;43.898;2023-12-22T02:54:30;15.77;;;6.90;;
70322;SDS011;57735;56.264;43.898;2023-12-22T02:57:02;16.73;;;6.13;;
70322;SDS011;57735;56.264;43.898;2023-12-22T02:59:32;19.10;;;7.38;;
70322;SDS011;57735;56.264;43.898;2023-12-22T03:02:03;16.20;;;6.70;;
70322;SDS011;57735;56.264;43.898;2023-12-22T03:04:34;17.48;;;7.05;;
70322;SDS011;57735;56.264;43.898;2023-12-22T03:07:08;15.80;;;7.03;;
70322;SDS011;57735;56.264;43.898;2023-12-22T03:09:39;19.95;;;7.00;;
70322;SDS011;57735;56.264;43.898;2023-12-22T03:12:13;18.52;;;7.93;;
70322;SDS011;57735;56.264;43.898;2023-12-22T03:14:43;16.95;;;7.30;;
70322;SDS011;57735;56.264;43.898;2023-12-22T03:17:14;18.05;;;7.30;;
70322;SDS011;57735;56.264;43.898;2023-12-22T03:19:45;19.63;;;7.82;;
70322;SDS011;57735;56.264;43.898;2023-12-22T03:22:16;14.35;;;6.60;;
70322;SDS011;57735;56.264;43.898;2023-12-22T03:24:47;16.90;;;7.63;;
70322;SDS011;57735;56.264;43.898;2023-12-22T03:27:18;15.32;;;7.32;;
70322;SDS011;57735;56.264;43.898;2023-12-22T03:29:50;19.90;;;7.93;;
70322;SDS011;57735;56.264;43.898;2023-12-22T03:32:21;18.05;;;7.85;;
70322;SDS011;57735;56.264;43.898;2023-12-22T03:34:52;16.70;;;7.07;;
70322;SDS011;57735;56.264;43.898;2023-12-22T03:37:22;21.13;;;7.20;;
70322;SDS011;57735;56.264;43.898;2023-12-22T03:39:53;18.92;;;7.68;;
70322;SDS011;57735;56.264;43.898;2023-12-22T03:42:24;20.15;;;8.38;;
70322;SDS011;57735;56.264;43.898;2023-12-22T03:44:55;18.23;;;7.53;;
70322;SDS011;57735;56.264;43.898;2023-12-22T03:47:26;18.00;;;8.45;;
70322;SDS011;57735;56.264;43.898;2023-12-22T03:49:57;20.77;;;8.60;;
70322;SDS011;57735;56.264;43.898;2023-12-22T03:52:27;18.98;;;8.45;;
70322;SDS011;57735;56.264;43.898;2023-12-22T03:55:01;17.57;;;7.63;;
70322;SDS011;57735;56.264;43.898;2023-12-22T03:57:34;20.40;;;7.65;;
70322;SDS011;57735;56.264;43.898;2023-12-22T04:00:05;19.33;;;7.70;;
70322;SDS011;57735;56.264;43.898;2023-12-22T04:02:37;16.13;;;7.60;;
70322;SDS011;57735;56.264;43.898;2023-12-22T04:05:07;23.35;;;9.18;;
70322;SDS011;57735;56.264;43.898;2023-12-22T04:07:41;22.52;;;9.60;;
70322;SDS011;57735;56.264;43.898;2023-12-22T04:10:12;24.40;;;10.90;;
70322;SDS011;57735;56.264;43.898;2023-12-22T04:12:43;29.00;;;10.32;;
70322;SDS011;57735;56.264;43.898;2023-12-22T04:15:14;34.03;;;11.38;;
70322;SDS011;57735;56.264;43.898;2023-12-22T04:17:47;26.10;;;10.23;;
70322;SDS011;57735;56.264;43.898;2023-12-22T04:20:18;24.25;;;9.80;;
70322;SDS011;57735;56.264;43.898;2023-12-22T04:22:49;30.63;;;11.25;;
70322;SDS011;57735;56.264;43.898;2023-12-22T04:25:20;29.58;;;9.57;;
70322;SDS011;57735;56.264;43.898;2023-12-22T04:27:53;26.38;;;9.60;;
70322;SDS011;57735;56.264;43.898;2023-12-22T04:30:23;26.60;;;9.45;;
70322;SDS011;57735;56.264;43.898;2023-12-22T04:32:56;32.35;;;10.82;;
70322;SDS011;57735;56.264;43.898;2023-12-22T04:35:27;22.48;;;9.52;;
70322;SDS011;57735;56.264;43.898;2023-12-22T04:37:58;25.33;;;10.48;;
70322;SDS011;57735;56.264;43.898;2023-12-22T04:40:31;24.88;;;10.20;;
70322;SDS011;57735;56.264;43.898;2023-12-22T04:43:02;46.88;;;13.30;;
70322;SDS011;57735;56.264;43.898;2023-12-22T04:45:35;47.10;;;17.52;;
70322;SDS011;57735;56.264;43.898;2023-12-22T04:48:06;34.78;;;13.40;;
70322;SDS011;57735;56.264;43.898;2023-12-22T04:50:37;32.22;;;12.60;;
70322;SDS011;57735;56.264;43.898;2023-12-22T04:53:08;35.65;;;12.05;;
70322;SDS011;57735;56.264;43.898;2023-12-22T04:55:39;28.65;;;10.43;;
70322;SDS011;57735;56.264;43.898;2023-12-22T04:58:10;24.45;;;9.68;;
70322;SDS011;57735;56.264;43.898;2023-12-22T05:00:40;25.25;;;9.93;;
70322;SDS011;57735;56.264;43.898;2023-12-22T05:03:14;25.47;;;9.93;;
70322;SDS011;57735;56.264;43.898;2023-12-22T05:05:47;28.98;;;11.05;;
70322;SDS011;57735;56.264;43.898;2023-12-22T05:08:18;24.25;;;10.25;;
70322;SDS011;57735;56.264;43.898;2023-12-22T05:10:49;25.23;;;10.20;;
70322;SDS011;57735;56.264;43.898;2023-12-22T05:13:20;29.08;;;11.57;;
70322;SDS011;57735;56.264;43.898;2023-12-22T05:15:53;25.42;;;10.65;;
70322;SDS011;57735;56.264;43.898;2023-12-22T05:18:24;26.67;;;9.18;;
70322;SDS011;57735;56.264;43.898;2023-12-22T05:20:54;22.17;;;9.80;;
70322;SDS011;57735;56.264;43.898;2023-12-22T05:23:25;22.98;;;9.00;;
70322;SDS011;57735;56.264;43.898;2023-12-22T05:25:59;20.08;;;8.98;;
70322;SDS011;57735;56.264;43.898;2023-12-22T05:28:30;16.98;;;7.63;;
70322;SDS011;57735;56.264;43.898;2023-12-22T05:31:01;21.23;;;8.20;;
70322;SDS011;57735;56.264;43.898;2023-12-22T05:33:32;21.33;;;8.85;;
70322;SDS011;57735;56.264;43.898;2023-12-22T05:36:03;19.45;;;8.40;;
70322;SDS011;57735;56.264;43.898;2023-12-22T05:38:40;28.42;;;9.63;;
70322;SDS011;57735;56.264;43.898;2023-12-22T05:41:11;21.45;;;8.77;;
70322;SDS011;57735;56.264;43.898;2023-12-22T05:43:42;24.88;;;7.80;;
70322;SDS011;57735;56.264;43.898;2023-12-22T05:46:13;23.02;;;8.60;;
70322;SDS011;57735;56.264;43.898;2023-12-22T05:48:44;22.95;;;9.05;;
70322;SDS011;57735;56.264;43.898;2023-12-22T05:51:15;24.42;;;10.10;;
70322;SDS011;57735;56.264;43.898;2023-12-22T05:53:46;29.35;;;10.27;;
70322;SDS011;57735;56.264;43.898;2023-12-22T05:56:20;26.98;;;10.15;;
70322;SDS011;57735;56.264;43.898;2023-12-22T05:58:51;30.38;;;10.35;;
70322;SDS011;57735;56.264;43.898;2023-12-22T06:01:22;30.77;;;10.77;;
70322;SDS011;57735;56.264;43.898;2023-12-22T06:03:53;39.05;;;12.98;;
70322;SDS011;57735;56.264;43.898;2023-12-22T06:06:29;44.03;;;14.68;;
70322;SDS011;57735;56.264;43.898;2023-12-22T06:09:03;40.58;;;13.10;;
70322;SDS011;57735;56.264;43.898;2023-12-22T06:11:33;48.72;;;16.27;;
70322;SDS011;57735;56.264;43.898;2023-12-22T06:14:04;52.70;;;16.50;;
70322;SDS011;57735;56.264;43.898;2023-12-22T06:16:36;61.40;;;20.05;;
70322;SDS011;57735;56.264;43.898;2023-12-22T06:19:09;75.88;;;22.17;;
70322;SDS011;57735;56.264;43.898;2023-12-22T06:21:43;54.30;;;16.48;;
70322;SDS011;57735;56.264;43.898;2023-12-22T06:24:14;63.88;;;18.85;;
70322;SDS011;57735;56.264;43.898;2023-12-22T06:26:45;70.70;;;20.02;;
70322;SDS011;57735;56.264;43.898;2023-12-22T06:29:15;68.70;;;19.05;;
70322;SDS011;57735;56.264;43.898;2023-12-22T06:31:46;50.05;;;15.60;;
70322;SDS011;57735;56.264;43.898;2023-12-22T06:34:21;48.33;;;15.25;;
70322;SDS011;57735;56.264;43.898;2023-12-22T06:36:52;27.50;;;10.60;;
70322;SDS011;57735;56.264;43.898;2023-12-22T06:39:22;33.38;;;12.18;;
70322;SDS011;57735;56.264;43.898;2023-12-22T06:41:53;34.55;;;13.40;;
70322;SDS011;57735;56.264;43.898;2023-12-22T06:44:24;30.10;;;11.30;;
70322;SDS011;57735;56.264;43.898;2023-12-22T06:46:56;30.77;;;12.18;;
70322;SDS011;57735;56.264;43.898;2023-12-22T06:49:27;42.05;;;14.05;;
70322;SDS011;57735;56.264;43.898;2023-12-22T06:51:58;40.08;;;16.02;;
70322;SDS011;57735;56.264;43.898;2023-12-22T06:54:29;32.60;;;12.35;;
70322;SDS011;57735;56.264;43.898;2023-12-22T06:57:00;40.95;;;13.95;;
70322;SDS011;57735;56.264;43.898;2023-12-22T06:59:30;40.88;;;14.85;;
70322;SDS011;57735;56.264;43.898;2023-12-22T07:02:01;41.50;;;13.85;;
70322;SDS011;57735;56.264;43.898;2023-12-22T07:04:32;38.72;;;13.43;;
70322;SDS011;57735;56.264;43.898;2023-12-22T07:07:03;29.33;;;10.60;;
70322;SDS011;57735;56.264;43.898;2023-12-22T07:09:34;26.52;;;12.10;;
70322;SDS011;57735;56.264;43.898;2023-12-22T07:12:05;28.70;;;12.13;;
70322;SDS011;57735;56.264;43.898;2023-12-22T07:14:38;26.90;;;10.30;;
70322;SDS011;57735;56.264;43.898;2023-12-22T07:17:09;22.88;;;9.90;;
70322;SDS011;57735;56.264;43.898;2023-12-22T07:19:40;34.72;;;11.27;;
70322;SDS011;57735;56.264;43.898;2023-12-22T07:22:11;22.73;;;9.88;;
70322;SDS011;57735;56.264;43.898;2023-12-22T07:24:42;23.10;;;9.63;;
70322;SDS011;57735;56.264;43.898;2023-12-22T07:27:13;20.13;;;7.82;;
70322;SDS011;57735;56.264;43.898;2023-12-22T07:29:45;22.30;;;8.18;;
70322;SDS011;57735;56.264;43.898;2023-12-22T07:32:16;19.25;;;7.43;;
70322;SDS011;57735;56.264;43.898;2023-12-22T07:34:48;15.82;;;7.70;;
70322;SDS011;57735;56.264;43.898;2023-12-22T07:37:19;16.95;;;7.93;;
70322;SDS011;57735;56.264;43.898;2023-12-22T07:39:49;17.17;;;8.30;;
70322;SDS011;57735;56.264;43.898;2023-12-22T07:42:20;16.08;;;7.25;;
70322;SDS011;57735;56.264;43.898;2023-12-22T07:44:55;17.63;;;7.63;;
70322;SDS011;57735;56.264;43.898;2023-12-22T07:47:26;14.10;;;6.60;;
70322;SDS011;57735;56.264;43.898;2023-12-22T07:49:58;17.90;;;7.90;;
70322;SDS011;57735;56.264;43.898;2023-12-22T07:52:31;18.67;;;7.73;;
70322;SDS011;57735;56.264;43.898;2023-12-22T07:55:02;18.48;;;8.02;;
70322;SDS011;57735;56.264;43.898;2023-12-22T07:57:34;22.25;;;7.80;;
70322;SDS011;57735;56.264;43.898;2023-12-22T08:00:07;18.58;;;7.85;;
70322;SDS011;57735;56.264;43.898;2023-12-22T08:02:43;17.55;;;8.82;;
70322;SDS011;57735;56.264;43.898;2023-12-22T08:05:14;17.73;;;7.93;;
70322;SDS011;57735;56.264;43.898;2023-12-22T08:07:45;19.88;;;8.85;;
70322;SDS011;57735;56.264;43.898;2023-12-22T08:10:17;23.27;;;10.40;;
70322;SDS011;57735;56.264;43.898;2023-12-22T08:12:52;17.75;;;8.23;;
70322;SDS011;57735;56.264;43.898;2023-12-22T08:15:26;21.52;;;8.00;;
70322;SDS011;57735;56.264;43.898;2023-12-22T08:17:56;19.27;;;8.50;;
70322;SDS011;57735;56.264;43.898;2023-12-22T08:20:28;25.13;;;9.60;;
70322;SDS011;57735;56.264;43.898;2023-12-22T08:23:00;20.90;;;8.88;;
70322;SDS011;57735;56.264;43.898;2023-12-22T08:25:31;26.10;;;8.90;;
70322;SDS011;57735;56.264;43.898;2023-12-22T08:28:02;27.63;;;11.65;;
70322;SDS011;57735;56.264;43.898;2023-12-22T08:30:33;31.55;;;13.52;;
70322;SDS011;57735;56.264;43.898;2023-12-22T08:33:04;49.75;;;22.63;;
70322;SDS011;57735;56.264;43.898;2023-12-22T08:35:35;77.65;;;34.50;;
70322;SDS011;57735;56.264;43.898;2023-12-22T08:38:06;93.53;;;37.42;;
70322;SDS011;57735;56.264;43.898;2023-12-22T08:40:37;80.32;;;32.67;;
70322;SDS011;57735;56.264;43.898;2023-12-22T08:43:08;60.63;;;24.55;;
70322;SDS011;57735;56.264;43.898;2023-12-22T08:45:41;39.95;;;15.10;;
70322;SDS011;57735;56.264;43.898;2023-12-22T08:48:12;26.48;;;10.93;;
70322;SDS011;57735;56.264;43.898;2023-12-22T08:50:45;25.15;;;10.73;;
70322;SDS011;57735;56.264;43.898;2023-12-22T08:53:16;23.10;;;8.68;;
70322;SDS011;57735;56.264;43.898;2023-12-22T08:55:49;18.48;;;8.15;;
70322;SDS011;57735;56.264;43.898;2023-12-22T08:58:23;19.60;;;7.53;;
70322;SDS011;57735;56.264;43.898;2023-12-22T09:00:56;18.42;;;6.97;;
70322;SDS011;57735;56.264;43.898;2023-12-22T09:03:27;15.93;;;7.05;;
70322;SDS011;57735;56.264;43.898;2023-12-22T09:05:58;15.25;;;6.80;;
70322;SDS011;57735;56.264;43.898;2023-12-22T09:08:32;15.93;;;7.73;;
70322;SDS011;57735;56.264;43.898;2023-12-22T09:11:03;15.93;;;6.50;;
70322;SDS011;57735;56.264;43.898;2023-12-22T09:13:34;20.10;;;8.30;;
70322;SDS011;57735;56.264;43.898;2023-12-22T09:16:06;15.55;;;7.13;;
70322;SDS011;57735;56.264;43.898;2023-12-22T09:18:37;18.08;;;7.82;;
70322;SDS011;57735;56.264;43.898;2023-12-22T09:21:11;14.02;;;5.75;;
70322;SDS011;57735;56.264;43.898;2023-12-22T09:23:42;19.20;;;7.05;;
70322;SDS011;57735;56.264;43.898;2023-12-22T09:28:48;21.45;;;7.57;;
70322;SDS011;57735;56.264;43.898;2023-12-22T09:31:19;16.70;;;6.57;;
70322;SDS011;57735;56.264;43.898;2023-12-22T09:33:53;19.70;;;7.25;;
70322;SDS011;57735;56.264;43.898;2023-12-22T09:36:23;17.60;;;6.63;;
70322;SDS011;57735;56.264;43.898;2023-12-22T09:38:54;13.52;;;6.18;;
70322;SDS011;57735;56.264;43.898;2023-12-22T09:41:25;15.23;;;6.43;;
70322;SDS011;57735;56.264;43.898;2023-12-22T09:43:59;15.05;;;6.80;;
70322;SDS011;57735;56.264;43.898;2023-12-22T09:46:33;18.33;;;6.75;;
70322;SDS011;57735;56.264;43.898;2023-12-22T09:49:05;19.80;;;7.47;;
70322;SDS011;57735;56.264;43.898;2023-12-22T09:51:36;14.50;;;6.80;;
70322;SDS011;57735;56.264;43.898;2023-12-22T09:54:08;21.25;;;8.60;;
70322;SDS011;57735;56.264;43.898;2023-12-22T09:56:40;18.05;;;7.50;;
70322;SDS011;57735;56.264;43.898;2023-12-22T09:59:14;18.80;;;7.85;;
70322;SDS011;57735;56.264;43.898;2023-12-22T10:01:48;14.63;;;7.25;;
70322;SDS011;57735;56.264;43.898;2023-12-22T10:04:21;17.98;;;6.90;;
70322;SDS011;57735;56.264;43.898;2023-12-22T10:06:52;15.82;;;7.22;;
70322;SDS011;57735;56.264;43.898;2023-12-22T10:09:31;16.08;;;6.78;;
70322;SDS011;57735;56.264;43.898;2023-12-22T10:12:03;18.45;;;7.15;;
70322;SDS011;57735;56.264;43.898;2023-12-22T10:14:35;14.25;;;6.35;;
70322;SDS011;57735;56.264;43.898;2023-12-22T10:17:08;11.02;;;4.90;;
70322;SDS011;57735;56.264;43.898;2023-12-22T10:19:39;12.63;;;5.32;;
70322;SDS011;57735;56.264;43.898;2023-12-22T10:22:10;18.10;;;7.82;;
70322;SDS011;57735;56.264;43.898;2023-12-22T10:24:42;20.13;;;9.10;;
70322;SDS011;57735;56.264;43.898;2023-12-22T10:27:17;18.98;;;7.90;;
70322;SDS011;57735;56.264;43.898;2023-12-22T10:29:55;16.15;;;5.72;;
70322;SDS011;57735;56.264;43.898;2023-12-22T10:32:27;9.27;;;5.05;;
70322;SDS011;57735;56.264;43.898;2023-12-22T10:34:58;10.80;;;5.25;;
70322;SDS011;57735;56.264;43.898;2023-12-22T10:37:29;10.48;;;5.05;;
70322;SDS011;57735;56.264;43.898;2023-12-22T10:39:59;15.10;;;6.57;;
70322;SDS011;57735;56.264;43.898;2023-12-22T10:45:06;19.42;;;7.07;;
70322;SDS011;57735;56.264;43.898;2023-12-22T10:47:38;16.02;;;7.40;;
70322;SDS011;57735;56.264;43.898;2023-12-22T10:50:11;16.85;;;7.43;;
70322;SDS011;57735;56.264;43.898;2023-12-22T10:52:48;20.27;;;9.50;;
70322;SDS011;57735;56.264;43.898;2023-12-22T10:55:20;17.63;;;8.65;;
70322;SDS011;57735;56.264;43.898;2023-12-22T10:57:51;18.02;;;7.35;;
70322;SDS011;57735;56.264;43.898;2023-12-22T11:00:24;16.98;;;7.07;;
70322;SDS011;57735;56.264;43.898;2023-12-22T11:03:01;13.20;;;6.38;;
70322;SDS011;57735;56.264;43.898;2023-12-22T11:05:36;15.95;;;5.57;;
70322;SDS011;57735;56.264;43.898;2023-12-22T11:08:16;11.80;;;5.22;;
70322;SDS011;57735;56.264;43.898;2023-12-22T11:10:50;12.52;;;4.45;;
70322;SDS011;57735;56.264;43.898;2023-12-22T11:13:27;9.40;;;4.47;;
70322;SDS011;57735;56.264;43.898;2023-12-22T11:15:58;8.40;;;4.53;;
70322;SDS011;57735;56.264;43.898;2023-12-22T11:18:29;11.77;;;5.10;;
70322;SDS011;57735;56.264;43.898;2023-12-22T11:21:02;9.73;;;4.80;;
70322;SDS011;57735;56.264;43.898;2023-12-22T11:23:37;10.45;;;4.85;;
70322;SDS011;57735;56.264;43.898;2023-12-22T11:26:09;11.82;;;5.38;;
70322;SDS011;57735;56.264;43.898;2023-12-22T11:28:45;11.65;;;5.22;;
70322;SDS011;57735;56.264;43.898;2023-12-22T11:31:31;9.48;;;4.93;;
70322;SDS011;57735;56.264;43.898;2023-12-22T11:34:26;17.13;;;6.22;;
70322;SDS011;57735;56.264;43.898;2023-12-22T11:36:59;10.80;;;4.93;;
70322;SDS011;57735;56.264;43.898;2023-12-22T11:39:36;10.55;;;5.10;;
70322;SDS011;57735;56.264;43.898;2023-12-22T11:42:08;9.68;;;5.00;;
70322;SDS011;57735;56.264;43.898;2023-12-22T11:44:44;13.52;;;4.90;;
70322;SDS011;57735;56.264;43.898;2023-12-22T11:47:16;10.35;;;4.55;;
70322;SDS011;57735;56.264;43.898;2023-12-22T11:49:47;8.93;;;4.20;;
70322;SDS011;57735;56.264;43.898;2023-12-22T11:52:25;13.35;;;4.75;;
70322;SDS011;57735;56.264;43.898;2023-12-22T11:54:59;7.25;;;4.00;;
70322;SDS011;57735;56.264;43.898;2023-12-22T11:57:38;16.90;;;5.18;;
70322;SDS011;57735;56.264;43.898;2023-12-22T12:00:37;12.75;;;4.65;;
70322;SDS011;57735;56.264;43.898;2023-12-22T12:03:05;9.68;;;4.28;;
70322;SDS011;57735;56.264;43.898;2023-12-22T12:05:37;8.10;;;4.00;;
70322;SDS011;57735;56.264;43.898;2023-12-22T12:08:08;8.38;;;4.32;;
70322;SDS011;57735;56.264;43.898;2023-12-22T12:10:51;10.40;;;4.25;;
70322;SDS011;57735;56.264;43.898;2023-12-22T12:13:32;11.45;;;4.63;;
70322;SDS011;57735;56.264;43.898;2023-12-22T12:16:06;11.40;;;5.25;;
70322;SDS011;57735;56.264;43.898;2023-12-22T12:18:38;12.45;;;4.93;;
70322;SDS011;57735;56.264;43.898;2023-12-22T12:21:10;10.52;;;4.63;;
70322;SDS011;57735;56.264;43.898;2023-12-22T12:23:41;8.80;;;4.63;;
70322;SDS011;57735;56.264;43.898;2023-12-22T12:26:13;11.38;;;4.63;;
70322;SDS011;57735;56.264;43.898;2023-12-22T12:28:44;8.30;;;4.28;;
70322;SDS011;57735;56.264;43.898;2023-12-22T12:31:17;8.95;;;4.43;;
70322;SDS011;57735;56.264;43.898;2023-12-22T12:33:48;10.77;;;4.60;;
70322;SDS011;57735;56.264;43.898;2023-12-22T12:36:19;9.75;;;4.65;;
70322;SDS011;57735;56.264;43.898;2023-12-22T12:41:29;10.10;;;4.10;;
70322;SDS011;57735;56.264;43.898;2023-12-22T12:44:07;13.90;;;5.25;;
70322;SDS011;57735;56.264;43.898;2023-12-22T12:46:40;9.25;;;4.63;;
70322;SDS011;57735;56.264;43.898;2023-12-22T12:49:14;10.05;;;4.57;;
70322;SDS011;57735;56.264;43.898;2023-12-22T12:51:46;11.18;;;5.00;;
70322;SDS011;57735;56.264;43.898;2023-12-22T12:54:18;9.90;;;4.65;;
70322;SDS011;57735;56.264;43.898;2023-12-22T12:56:49;13.70;;;6.53;;
70322;SDS011;57735;56.264;43.898;2023-12-22T12:59:21;11.07;;;5.05;;
70322;SDS011;57735;56.264;43.898;2023-12-22T13:01:52;8.68;;;4.72;;
70322;SDS011;57735;56.264;43.898;2023-12-22T13:04:25;10.00;;;4.28;;
70322;SDS011;57735;56.264;43.898;2023-12-22T13:07:08;10.63;;;4.65;;
70322;SDS011;57735;56.264;43.898;2023-12-22T13:09:40;11.20;;;4.90;;
70322;SDS011;57735;56.264;43.898;2023-12-22T13:12:14;10.65;;;4.43;;
70322;SDS011;57735;56.264;43.898;2023-12-22T13:14:45;10.25;;;4.93;;
70322;SDS011;57735;56.264;43.898;2023-12-22T13:17:16;10.43;;;5.30;;
70322;SDS011;57735;56.264;43.898;2023-12-22T13:19:47;12.77;;;5.50;;
70322;SDS011;57735;56.264;43.898;2023-12-22T13:22:18;9.88;;;4.93;;
70322;SDS011;57735;56.264;43.898;2023-12-22T13:24:58;9.57;;;4.63;;
70322;SDS011;57735;56.264;43.898;2023-12-22T13:27:29;9.13;;;4.75;;
70322;SDS011;57735;56.264;43.898;2023-12-22T13:30:00;10.23;;;4.57;;
70322;SDS011;57735;56.264;43.898;2023-12-22T13:32:31;9.68;;;4.05;;
70322;SDS011;57735;56.264;43.898;2023-12-22T13:35:02;10.73;;;4.60;;
70322;SDS011;57735;56.264;43.898;2023-12-22T13:37:34;11.98;;;5.35;;
70322;SDS011;57735;56.264;43.898;2023-12-22T13:40:11;11.05;;;4.80;;
70322;SDS011;57735;56.264;43.898;2023-12-22T13:42:43;10.05;;;4.55;;
70322;SDS011;57735;56.264;43.898;2023-12-22T13:45:15;9.98;;;4.70;;
70322;SDS011;57735;56.264;43.898;2023-12-22T13:47:46;10.70;;;5.18;;
70322;SDS011;57735;56.264;43.898;2023-12-22T13:50:18;12.07;;;4.80;;
70322;SDS011;57735;56.264;43.898;2023-12-22T13:52:49;11.35;;;5.10;;
70322;SDS011;57735;56.264;43.898;2023-12-22T13:55:22;10.18;;;4.75;;
70322;SDS011;57735;56.264;43.898;2023-12-22T13:58:02;11.70;;;4.28;;
70322;SDS011;57735;56.264;43.898;2023-12-22T14:01:00;11.02;;;4.63;;
70322;SDS011;57735;56.264;43.898;2023-12-22T14:03:47;12.00;;;5.63;;
70322;SDS011;57735;56.264;43.898;2023-12-22T14:06:18;11.32;;;5.43;;
70322;SDS011;57735;56.264;43.898;2023-12-22T14:08:49;12.38;;;5.63;;
70322;SDS011;57735;56.264;43.898;2023-12-22T14:11:20;10.85;;;5.20;;
70322;SDS011;57735;56.264;43.898;2023-12-22T14:13:51;9.00;;;4.15;;
70322;SDS011;57735;56.264;43.898;2023-12-22T14:16:22;7.72;;;4.38;;
70322;SDS011;57735;56.264;43.898;2023-12-22T14:18:53;10.52;;;4.60;;
70322;SDS011;57735;56.264;43.898;2023-12-22T14:21:25;11.32;;;4.93;;
70322;SDS011;57735;56.264;43.898;2023-12-22T14:23:56;13.38;;;5.45;;
70322;SDS011;57735;56.264;43.898;2023-12-22T14:26:27;9.65;;;4.28;;
70322;SDS011;57735;56.264;43.898;2023-12-22T14:28:58;11.73;;;5.10;;
70322;SDS011;57735;56.264;43.898;2023-12-22T14:31:29;11.90;;;5.20;;
70322;SDS011;57735;56.264;43.898;2023-12-22T14:33:59;12.55;;;5.57;;
70322;SDS011;57735;56.264;43.898;2023-12-22T14:36:30;13.43;;;5.63;;
70322;SDS011;57735;56.264;43.898;2023-12-22T14:39:01;11.50;;;4.88;;
70322;SDS011;57735;56.264;43.898;2023-12-22T14:41:32;12.70;;;5.32;;
70322;SDS011;57735;56.264;43.898;2023-12-22T14:44:03;11.13;;;5.15;;
70322;SDS011;57735;56.264;43.898;2023-12-22T14:46:37;11.32;;;4.93;;
70322;SDS011;57735;56.264;43.898;2023-12-22T14:49:11;14.57;;;6.30;;
70322;SDS011;57735;56.264;43.898;2023-12-22T14:51:44;12.38;;;5.00;;
70322;SDS011;57735;56.264;43.898;2023-12-22T14:54:17;12.85;;;5.90;;
70322;SDS011;57735;56.264;43.898;2023-12-22T14:56:48;14.80;;;5.88;;
70322;SDS011;57735;56.264;43.898;2023-12-22T14:59:19;11.35;;;4.95;;
70322;SDS011;57735;56.264;43.898;2023-12-22T15:01:56;12.80;;;4.82;;